Latest Weather Observations for Albany Airport

IDW60801

Issued at 6:04 am WST Sunday 28 August 2016 (issued every 30 minutes, with the page automatically refreshed every 10 minutes)

About weather observations | Map of weather stations | Latest weather observations for WA | Other Formats
Station Details ID: 009999 Name: ALBANY AIRPORT Lat: -34.94 Lon: 117.82 Height: 68.4 m
Data from the previous 72 hours. | See also: Recent months at Albany Airport
Date/Time
WST
Temp
°C
App
Temp
°C
Dew
Point
°C
Rel
Hum
%
Delta-T
°C
Wind Press
QNH
hPa
Press
MSL
hPa
Rain since
9am
mm
Dir  Spd
km/h
Gust
km/h
Spd
kts
Gust
kts
28/06:00am 11.6 6.7 10.0 90 0.8 SSW 26 41 14 22 1001.1 1001.2 17.4
28/05:30am 11.9 5.7 9.3 84 1.3 SSW 32 50 17 27 1000.7 - 17.4
28/05:22am 11.8 5.6 9.2 84 1.3 SSW 32 50 17 27 1000.6 - 17.4
28/05:00am 11.6 6.1 9.2 85 1.2 S 28 44 15 24 1000.2 - 17.4
28/04:55am 11.7 6.3 9.5 86 1.1 S 28 43 15 23 1000.2 - 17.2
28/04:34am 11.8 7.4 10.3 90 0.8 S 24 35 13 19 999.8 - 17.0
28/04:30am 11.9 7.1 10.2 89 0.9 S 26 41 14 22 999.7 - 16.8
28/04:01am 11.7 8.0 10.0 89 0.9 S 20 32 11 17 998.7 - 16.8
28/04:00am 11.7 8.0 10.0 89 0.9 S 20 32 11 17 998.7 - 16.8
28/03:54am 11.7 7.2 10.2 90 0.8 S 24 37 13 20 998.5 - 16.8
28/03:30am 12.0 7.8 11.2 95 0.4 SW 24 37 13 20 997.5 - 16.4
28/03:00am 11.9 6.0 11.1 95 0.4 SW 33 46 18 25 997.3 997.4 15.4
28/02:48am 11.8 5.9 11.2 96 0.3 SW 33 52 18 28 997.1 - 15.2
28/02:30am 11.4 6.4 10.8 96 0.3 WSW 28 43 15 23 997.3 - 13.4
28/02:03am 11.1 5.6 10.5 96 0.3 SW 30 48 16 26 997.6 - 11.8
28/02:00am 11.1 5.2 10.3 95 0.4 SW 32 48 17 26 997.6 - 11.6
28/01:41am 11.0 5.4 10.2 95 0.4 SW 30 41 16 22 997.8 - 10.8
28/01:30am 11.0 5.0 10.2 95 0.4 SW 32 50 17 27 997.9 - 10.0
28/01:26am 11.0 5.4 10.2 95 0.4 SW 30 50 16 27 997.9 - 9.8
28/01:16am 10.9 5.3 10.1 95 0.4 SW 30 46 16 25 998.1 - 9.2
28/01:15am 11.0 5.4 10.0 93 0.5 SW 30 46 16 25 998.1 - 9.2
28/01:14am 11.0 5.7 10.0 93 0.5 SW 28 46 15 25 998.1 - 9.2
28/01:13am 11.0 5.8 10.2 95 0.4 SW 28 41 15 22 998.1 - 9.2
28/01:02am 11.0 5.4 10.2 95 0.4 SW 30 46 16 25 998.1 - 9.0
28/01:00am 10.9 5.7 10.1 95 0.4 SW 28 46 15 25 998.2 - 9.0
28/12:57am 11.0 5.4 10.0 93 0.5 SW 30 46 16 25 998.2 - 9.0
28/12:52am 11.1 5.0 9.9 92 0.6 SW 32 43 17 23 998.2 - 8.8
28/12:46am 11.0 5.0 10.0 93 0.5 SW 32 43 17 23 998.2 - 8.6
28/12:36am 11.0 5.0 10.0 93 0.5 SW 32 50 17 27 998.3 - 8.6
28/12:30am 11.0 4.9 9.8 92 0.6 SW 32 54 17 29 998.2 - 8.6
28/12:25am 11.0 5.7 10.0 93 0.5 SW 28 54 15 29 998.2 - 8.4
28/12:24am 11.0 6.1 10.0 93 0.5 SW 26 39 14 21 998.2 - 8.4
28/12:10am 10.7 5.5 10.1 96 0.3 SW 28 44 15 24 998.3 - 8.4
28/12:03am 10.9 5.6 9.9 93 0.5 SW 28 44 15 24 998.3 - 8.2
28/12:00am 10.9 5.2 9.9 93 0.5 SW 30 44 16 24 998.2 998.3 7.6
 
Date/Time
WST
Temp
°C
App
Temp
°C
Dew
Point
°C
Rel
Hum
%
Delta-T
°C
Wind Press
QNH
hPa
Press
MSL
hPa
Rain since
9am
mm
Dir  Spd
km/h
Gust
km/h
Spd
kts
Gust
kts
27/11:59pm 10.9 5.2 9.9 93 0.5 SW 30 44 16 24 998.2 - 7.6
27/11:48pm 10.7 4.6 9.7 93 0.5 SW 32 41 17 22 998.2 - 7.6
27/11:30pm 10.8 5.4 9.6 92 0.6 SSW 28 43 15 23 998.3 - 7.4
27/11:29pm 10.9 5.5 9.5 91 0.7 SSW 28 37 15 20 998.3 - 7.4
27/11:24pm 10.9 5.9 9.5 91 0.7 SW 26 37 14 20 998.3 - 7.4
27/11:14pm 10.6 6.1 10.0 96 0.3 SSW 24 33 13 18 998.3 - 7.4
27/11:02pm 10.6 5.7 9.8 95 0.4 SW 26 41 14 22 998.3 - 7.2
27/11:00pm 10.9 6.2 9.3 90 0.8 SW 24 41 13 22 998.2 - 6.8
27/10:30pm 11.3 7.4 9.3 87 1.0 SSW 20 30 11 16 998.0 - 6.8
27/10:08pm 11.4 8.2 9.8 90 0.8 SSW 17 28 9 15 997.9 - 6.8
27/10:00pm 11.3 7.9 10.5 95 0.4 SSW 19 32 10 17 997.8 - 6.8
27/09:48pm 11.3 7.5 9.9 91 0.7 SSW 20 37 11 20 997.9 - 6.4
27/09:44pm 11.4 8.1 9.6 89 0.9 SSW 17 26 9 14 997.8 - 5.6
27/09:30pm 11.4 7.8 10.4 94 0.5 S 20 33 11 18 997.8 - 5.6
27/09:22pm 11.6 8.0 10.0 90 0.8 SSW 19 33 10 18 997.8 - 4.8
27/09:00pm 11.6 8.4 9.8 89 0.9 SSW 17 26 9 14 997.4 997.5 4.4
27/08:30pm 11.7 8.1 9.8 88 1.0 S 19 26 10 14 997.0 - 3.6
27/08:00pm 11.1 8.3 9.9 92 0.6 S 15 24 8 13 996.6 - 3.6
27/07:30pm 11.0 8.3 10.2 95 0.4 SSW 15 20 8 11 996.1 - 3.0
27/07:27pm 11.0 8.3 10.2 95 0.4 SSW 15 20 8 11 996.0 - 3.0
27/07:08pm 10.7 7.6 10.3 97 0.2 SSW 17 24 9 13 995.7 - 2.4
27/07:00pm 10.9 7.8 10.3 96 0.3 SSW 17 20 9 11 995.6 - 2.0
27/06:57pm 10.9 7.9 10.5 97 0.2 SSW 17 22 9 12 995.5 - 1.8
27/06:56pm 11.0 7.9 10.4 96 0.3 SSW 17 22 9 12 995.4 - 1.8
27/06:30pm 11.2 8.9 10.6 96 0.3 SSW 13 20 7 11 994.8 - 1.2
27/06:00pm 11.5 9.6 10.5 94 0.5 S 11 13 6 7 994.2 994.4 1.0
27/05:30pm 11.7 11.5 10.6 93 0.6 N 2 7 1 4 993.7 - 0.6
27/05:00pm 12.1 9.6 9.8 86 1.2 NNW 13 20 7 11 993.5 - 0.4
27/04:30pm 12.9 10.4 9.6 80 1.7 NNW 13 19 7 10 993.3 - 0.0
27/04:00pm 13.9 10.4 8.6 70 2.7 NNW 17 24 9 13 993.2 - 0.0
27/03:30pm 16.1 10.6 7.6 57 4.3 NNW 26 37 14 20 993.1 - 0.0
27/03:00pm 16.0 10.9 7.5 57 4.3 NW 24 33 13 18 993.2 993.4 0.0
27/02:30pm 15.1 9.2 7.3 59 3.9 N 28 39 15 21 993.5 - 0.0
27/02:00pm 14.7 10.0 7.7 63 3.5 N 22 30 12 16 993.8 - 0.0
27/01:30pm 14.3 9.9 8.8 69 2.8 N 22 30 12 16 994.3 - 0.0
27/01:00pm 13.6 10.2 9.3 75 2.2 N 17 33 9 18 994.9 - 0.0
27/12:30pm 14.2 10.1 8.5 68 2.9 N 20 26 11 14 995.3 - 0.0
27/12:00pm 14.3 8.7 7.0 61 3.6 NNW 26 35 14 19 995.7 995.9 0.0
27/11:30am 14.1 8.6 7.5 64 3.3 NNW 26 39 14 21 995.9 - 0.0
27/11:00am 14.8 10.2 8.1 64 3.4 NNW 22 30 12 16 996.5 - 0.0
27/10:30am 14.3 8.4 7.7 64 3.3 NNW 28 39 15 21 996.7 - 0.0
27/10:00am 14.3 8.6 8.2 67 3.1 NNW 28 39 15 21 996.9 - 0.0
27/09:30am 13.5 8.8 7.9 69 2.8 NNW 22 32 12 17 997.3 - 0.0
27/09:00am 12.4 8.9 8.6 77 1.9 N 17 22 9 12 997.8 997.9 5.4
27/08:30am 11.9 8.0 8.5 80 1.7 N 19 30 10 16 998.0 - 5.4
27/08:00am 11.2 7.0 8.2 82 1.5 NNW 20 30 11 16 998.1 - 5.4
27/07:30am 10.2 6.6 8.2 87 1.0 NNW 17 24 9 13 998.1 - 5.4
27/07:00am 9.7 5.6 7.8 88 0.9 NNW 19 24 10 13 998.0 - 5.4
27/06:30am 10.1 7.0 8.7 91 0.7 N 15 20 8 11 998.0 - 5.4
27/06:00am 10.3 6.8 8.7 90 0.8 NW 17 20 9 11 998.1 998.2 5.2
27/05:30am 10.3 7.3 9.1 92 0.6 NNW 15 19 8 10 998.2 - 5.2
27/05:00am 10.4 7.8 9.2 92 0.6 NW 13 17 7 9 997.7 - 5.2
27/04:30am 10.6 7.6 9.2 91 0.7 NW 15 22 8 12 998.1 - 5.0
27/04:00am 10.9 7.0 9.3 90 0.8 NW 20 24 11 13 998.4 - 4.6
27/03:30am 11.2 8.1 10.4 95 0.4 NW 17 26 9 14 998.6 - 4.0
27/03:27am 11.3 7.8 10.3 94 0.5 NW 19 26 10 14 998.6 - 4.0
27/03:00am 11.6 9.5 11.0 96 0.3 W 13 24 7 13 998.9 999.0 3.4
27/02:30am 11.5 9.3 10.7 95 0.4 NW 13 15 7 8 999.1 - 2.2
27/02:00am 11.7 9.0 10.5 92 0.6 NW 15 19 8 10 999.2 - 2.0
27/01:30am 11.9 8.9 10.6 92 0.7 NW 17 22 9 12 999.4 - 1.8
27/01:00am 12.0 9.1 10.9 93 0.6 NW 17 24 9 13 999.9 - 1.8
27/12:30am 12.1 8.9 11.2 94 0.5 NNW 19 24 10 13 1000.4 - 1.2
27/12:00am 12.4 10.0 11.3 93 0.6 NW 15 22 8 12 999.9 1000.0 1.2
 
Date/Time
WST
Temp
°C
App
Temp
°C
Dew
Point
°C
Rel
Hum
%
Delta-T
°C
Wind Press
QNH
hPa
Press
MSL
hPa
Rain since
9am
mm
Dir  Spd
km/h
Gust
km/h
Spd
kts
Gust
kts
26/11:30pm 12.8 9.7 11.7 93 0.6 NW 19 22 10 12 1001.6 - 0.2
26/11:00pm 13.2 10.6 11.9 92 0.7 NW 17 22 9 12 1000.9 - 0.2
26/10:30pm 13.5 10.1 11.3 86 1.2 NW 20 28 11 15 1001.7 - 0.0
26/10:00pm 13.4 9.5 10.7 84 1.4 NW 22 26 12 14 1001.5 - 0.0
26/09:30pm 14.6 10.2 8.9 68 2.9 N 22 30 12 16 1002.0 - 0.0
26/09:00pm 16.1 10.7 7.8 58 4.2 NNW 26 37 14 20 1001.7 1001.8 0.0
26/08:30pm 16.4 11.2 7.2 54 4.6 N 24 37 13 20 1001.6 - 0.0
26/08:00pm 16.6 11.6 6.5 51 5.0 N 22 33 12 18 1002.2 - 0.0
26/07:30pm 16.7 12.0 6.1 49 5.2 N 20 28 11 15 1002.2 - 0.0
26/07:00pm 16.8 12.4 6.5 50 5.1 N 19 22 10 12 1003.2 - 0.0
26/06:30pm 16.8 12.9 7.0 52 4.9 N 17 24 9 13 1003.2 - 0.0
26/06:00pm 16.8 13.3 7.3 53 4.8 N 15 20 8 11 1003.5 1003.7 0.0
26/05:30pm 16.9 13.3 6.9 51 5.0 N 15 19 8 10 1003.3 - 0.0
26/05:00pm 17.9 13.4 5.9 45 5.9 N 19 28 10 15 1003.9 - 0.0
26/04:30pm 17.9 13.5 6.5 47 5.7 N 19 22 10 12 1003.9 - 0.0
26/04:00pm 18.1 12.8 5.1 42 6.3 N 22 32 12 17 1004.1 - 0.0
26/03:30pm 18.3 13.7 6.5 46 5.9 N 20 28 11 15 1004.2 - 0.0
26/03:00pm 18.3 13.2 6.2 45 6.0 N 22 30 12 16 1004.7 1004.9 0.0
26/02:30pm 18.5 12.2 5.7 43 6.3 N 28 39 15 21 1004.8 - 0.0
26/02:00pm 19.5 14.1 6.4 42 6.6 N 24 30 13 16 1005.1 - 0.0
26/01:30pm 19.2 13.8 6.5 43 6.4 N 24 39 13 21 1005.3 - 0.0
26/01:00pm 18.6 13.2 6.4 45 6.1 N 24 33 13 18 1005.7 - 0.0
26/12:30pm 18.1 11.0 5.4 43 6.2 N 32 43 17 23 1006.5 - 0.0
26/12:00pm 17.3 9.9 4.2 41 6.2 N 32 48 17 26 1007.5 1007.7 0.0
26/11:30am 17.9 9.9 3.9 39 6.6 N 35 46 19 25 1008.1 - 0.0
26/11:00am 17.5 10.1 4.2 41 6.3 N 32 43 17 23 1009.0 - 0.0
26/10:30am 16.8 9.3 3.7 41 6.1 N 32 44 17 24 1009.9 - 0.0
26/10:00am 15.4 7.8 2.8 42 5.7 N 32 44 17 24 1010.5 - 0.0
26/09:30am 16.2 8.5 2.2 39 6.3 N 32 50 17 27 1010.9 - 0.0
26/09:00am 15.4 8.9 2.5 42 5.8 N 26 33 14 18 1011.4 1011.6 0.2
26/08:30am 13.8 7.6 2.2 45 5.1 N 24 39 13 21 1012.1 - 0.2
26/08:00am 13.5 8.8 3.0 49 4.7 N 17 20 9 11 1012.4 - 0.2
26/07:30am 12.9 7.4 2.1 48 4.7 N 20 28 11 15 1012.8 - 0.2
26/07:00am 12.6 6.4 2.0 48 4.6 N 24 32 13 17 1013.1 - 0.2
26/06:30am 12.1 6.3 2.5 52 4.2 N 22 30 12 16 1012.9 - 0.2
26/06:00am 11.6 5.9 2.9 55 3.8 N 22 33 12 18 1013.1 1013.2 0.2
26/05:30am 11.0 6.7 3.3 59 3.4 N 15 22 8 12 1013.6 - 0.2
26/05:00am 9.9 5.7 4.0 67 2.6 N 15 17 8 9 1013.9 - 0.2
26/04:30am 7.9 4.5 4.2 77 1.6 N 11 13 6 7 1014.0 - 0.2
26/04:00am 7.0 4.6 4.5 84 1.1 NE 6 9 3 5 1014.4 - 0.2
26/03:30am 6.2 4.0 5.1 93 0.5 NE 6 7 3 4 1014.8 - 0.2
26/03:00am 6.0 3.8 5.3 95 0.3 NE 6 7 3 4 1015.5 1015.7 0.2
26/02:30am 5.9 3.2 5.7 99 0.1 NNE 9 11 5 6 1016.0 - 0.2
26/02:00am 5.8 3.1 5.6 99 0.1 NNE 9 11 5 6 1016.6 - 0.2
26/01:30am 5.5 3.0 5.0 97 0.2 NE 7 9 4 5 1017.2 - 0.2
26/01:00am 6.0 3.6 5.3 95 0.3 NE 7 11 4 6 1017.7 - 0.2
26/12:30am 6.6 3.5 5.7 94 0.4 NE 11 13 6 7 1017.9 - 0.2
26/12:00am 7.6 4.7 6.3 91 0.6 NE 11 13 6 7 1018.4 1018.6 0.2
 
Date/Time
WST
Temp
°C
App
Temp
°C
Dew
Point
°C
Rel
Hum
%
Delta-T
°C
Wind Press
QNH
hPa
Press
MSL
hPa
Rain since
9am
mm
Dir  Spd
km/h
Gust
km/h
Spd
kts
Gust
kts
25/11:30pm 8.1 4.8 6.6 90 0.7 NE 13 17 7 9 1018.8 - 0.2
25/11:00pm 8.5 5.0 7.0 90 0.7 ENE 15 20 8 11 1019.4 - 0.2
25/10:30pm 8.4 5.5 6.7 89 0.8 NE 11 15 6 8 1020.0 - 0.2
25/10:00pm 8.9 5.7 6.8 87 1.0 NE 13 17 7 9 1020.4 - 0.2
25/09:30pm 9.1 5.8 6.5 84 1.2 NE 13 17 7 9 1020.5 - 0.2
25/09:00pm 9.3 5.2 6.3 81 1.4 NE 17 22 9 12 1020.8 1021.0 0.2
25/08:30pm 9.4 4.7 5.2 75 1.9 NE 19 28 10 15 1020.9 - 0.2
25/08:00pm 7.8 4.6 3.3 73 1.9 ENE 9 13 5 7 1020.9 - 0.2
25/07:30pm 7.4 4.3 3.4 76 1.7 E 9 11 5 6 1021.1 - 0.2
25/07:00pm 8.5 5.8 3.9 73 2.0 ENE 7 9 4 5 1021.2 - 0.2
25/06:30pm 10.0 6.4 3.0 62 3.0 NE 11 13 6 7 1020.6 - 0.2
25/06:00pm 11.4 7.9 3.5 58 3.5 NE 11 13 6 7 1020.4 1020.6 0.2
25/05:30pm 13.1 9.2 3.5 52 4.3 NE 13 17 7 9 1020.2 - 0.2
25/05:00pm 14.6 9.8 2.4 43 5.4 NE 17 24 9 13 1020.3 - 0.2
25/04:30pm 15.5 10.3 2.2 40 5.9 NE 19 28 10 15 1020.6 - 0.2
25/04:00pm 16.0 10.9 3.3 42 5.8 NE 19 28 10 15 1020.9 - 0.2
25/03:30pm 16.2 11.0 2.7 40 6.1 NE 19 28 10 15 1021.3 - 0.2
25/03:00pm 16.1 10.7 2.5 40 6.1 NE 20 28 11 15 1021.7 1021.9 0.2
25/02:30pm 16.4 11.3 3.0 40 6.1 NE 19 28 10 15 1022.0 - 0.2
25/02:00pm 15.5 10.7 2.8 42 5.7 NE 17 22 9 12 1022.3 - 0.2
25/01:30pm 16.4 11.3 3.0 40 6.1 NE 19 22 10 12 1022.8 - 0.2
25/01:00pm 15.9 11.3 3.7 44 5.6 NNE 17 24 9 13 1023.4 - 0.2
25/12:30pm 15.3 10.5 2.5 42 5.7 NNE 17 26 9 14 1024.1 - 0.2
25/12:00pm 14.7 9.7 3.4 46 5.1 NNE 19 26 10 14 1024.7 1024.9 0.0
25/11:30am 14.6 9.9 3.3 46 5.1 NNE 17 28 9 15 1025.5 - 0.0
25/11:00am 14.6 10.5 4.4 50 4.7 NNE 15 20 8 11 1026.0 - 0.0
25/10:30am 13.4 8.2 3.6 51 4.4 NNE 20 26 11 14 1026.3 - 0.0
25/10:00am 13.1 8.1 4.6 56 3.9 NNE 20 26 11 14 1026.3 - 0.0
25/09:30am 12.3 8.0 5.1 61 3.3 NE 17 24 9 13 1026.4 - 0.0
25/09:00am 11.2 6.9 5.3 67 2.7 NNE 17 24 9 13 1026.5 1026.8 0.0
25/08:30am 10.0 7.1 6.6 79 1.6 NNE 11 15 6 8 1026.7 - 0.0
25/08:00am 8.3 6.3 7.2 93 0.5 N 7 9 4 5 1026.7 - 0.0
25/07:30am 6.9 4.8 6.5 97 0.2 NNE 7 9 4 5 1026.5 - 0.0
25/07:10am 6.1 3.9 6.1 100 0.0 ENE 7 7 4 4 1026.4 - 0.0
25/07:00am 6.1 3.9 6.1 100 0.0 ENE 7 7 4 4 1026.3 - 0.0
25/06:48am 5.8 3.5 5.6 99 0.1 ENE 7 9 4 5 1026.1 - 0.0
25/06:30am 6.3 4.1 6.3 100 0.0 NE 7 9 4 5 1026.0 - 0.0

Other Formats:

Comma delimited format used in spreadsheet applications
http://www.bom.gov.au/fwo/IDW60801/IDW60801.94802.axf

JavaScript Object Notation format (JSON) in row-major order
http://www.bom.gov.au/fwo/IDW60801/IDW60801.94802.json